Time;durP1;ratioP1;P1;durP2;ratioP2;P2;SDS_P1;SDS_P2;PMS_P1;PMS_P2;Temp;Humidity;BMP_temperature;BMP_pressure;BME280_temperature;BME280_humidity;BME280_pressure;Samples;Min_cycle;Max_cycle;Signal;HPM_P1;HPM_P2
2022/04/17 00:00:52;;;;;;;;;;;7.80;95.90;;;;;;5136994;27;19923;-69
2022/04/17 00:03:18;;;;;;;;;;;6.60;94.80;;;;;;5118448;27;19923;-68
2022/04/17 00:05:44;;;;;;;;;;;7.70;95.30;;;;;;5118321;27;19985;-69
2022/04/17 00:08:09;;;;;;;;;;;7.30;94.30;;;;;;5136874;27;19923;-69
2022/04/17 00:10:35;;;;;;;;;;;7.30;94.30;;;;;;5118537;27;20286;-71
2022/04/17 00:13:01;;;;;;;;;;;7.30;94.10;;;;;;5118517;27;19923;-69
2022/04/17 00:15:27;;;;;;;;;;;7.30;94.50;;;;;;5118628;27;19934;-70
2022/04/17 00:17:52;;;;;;;;;;;7.30;95.20;;;;;;5118183;27;19927;-68
2022/04/17 00:20:18;;;;;;;;;;;7.20;95.20;;;;;;5136313;27;19929;-69
2022/04/17 00:22:44;;;;;;;;;;;7.80;95.80;;;;;;5118424;27;19924;-70
2022/04/17 00:25:11;;;;;;;;;;;7.90;95.20;;;;;;5136640;27;20302;-70
2022/04/17 00:27:38;;;;;;;;;;;7.10;97.70;;;;;;5136518;27;19934;-69
2022/04/17 00:30:05;;;;;;;;;;;7.10;99.90;;;;;;5136313;27;19923;-69
2022/04/17 00:32:31;;;;;;;;;;;7.10;98.10;;;;;;5117542;27;19946;-69
2022/04/17 00:34:57;;;;;;;;;;;7.10;98.50;;;;;;5135780;27;20336;-68
2022/04/17 00:37:23;;;;;;;;;;;7.10;99.90;;;;;;5136096;27;19936;-70
2022/04/17 00:39:48;;;;;;;;;;;8.40;99.90;;;;;;5117885;27;19923;-69
2022/04/17 00:42:14;;;;;;;;;;;6.90;99.90;;;;;;5136215;27;19974;-68
2022/04/17 00:44:39;;;;;;;;;;;6.90;99.90;;;;;;5117974;27;20026;-70
2022/04/17 00:47:05;;;;;;;;;;;6.90;99.90;;;;;;5136087;27;20293;-68
2022/04/17 00:49:31;;;;;;;;;;;6.90;99.90;;;;;;5135807;27;20484;-70
2022/04/17 00:51:57;;;;;;;;;;;7.30;99.90;;;;;;5135842;27;20021;-68
2022/04/17 00:54:24;;;;;;;;;;;7.60;99.80;;;;;;5135916;27;19928;-68
2022/04/17 00:56:50;;;;;;;;;;;7.00;98.90;;;;;;5135849;27;19923;-68
2022/04/17 00:59:15;;;;;;;;;;;7.00;99.40;;;;;;5135995;27;19930;-69
2022/04/17 01:01:41;;;;;;;;;;;7.00;99.10;;;;;;5135683;27;19923;-69
2022/04/17 01:04:07;;;;;;;;;;;7.50;99.00;;;;;;5117222;27;19927;-69
2022/04/17 01:06:33;;;;;;;;;;;8.60;99.80;;;;;;5135564;27;20017;-68
2022/04/17 01:09:00;;;;;;;;;;;7.00;99.90;;;;;;5135469;27;20006;-69
2022/04/17 01:11:26;;;;;;;;;;;7.00;99.90;;;;;;5135625;27;20446;-70
2022/04/17 01:13:52;;;;;;;;;;;7.00;99.90;;;;;;5117247;27;20353;-69
2022/04/17 01:16:18;;;;;;;;;;;7.00;99.90;;;;;;5117183;27;19924;-70
2022/04/17 01:19:04;;;;;;;;;;;6.90;99.90;;;;;;5117238;27;19973;-70
2022/04/17 01:21:30;;;;;;;;;;;6.90;99.90;;;;;;5135281;27;20381;-70
2022/04/17 01:26:57;;;;;;;;;;;6.90;99.90;;;;;;5117060;27;20396;-70
2022/04/17 01:29:22;;;;;;;;;;;8.40;99.90;;;;;;5117154;27;19979;-69
2022/04/17 01:31:48;;;;;;;;;;;6.90;99.90;;;;;;5116726;27;20362;-69
2022/04/17 01:34:15;;;;;;;;;;;7.00;99.90;;;;;;5116851;27;19935;-68
2022/04/17 01:36:41;;;;;;;;;;;6.80;99.90;;;;;;5117123;27;19967;-70
2022/04/17 01:39:07;;;;;;;;;;;8.00;99.90;;;;;;5135090;27;19974;-68
2022/04/17 01:41:32;;;;;;;;;;;6.70;99.90;;;;;;5134973;27;19971;-69
2022/04/17 01:43:58;;;;;;;;;;;6.70;99.90;;;;;;5116929;27;19923;-70
2022/04/17 01:46:23;;;;;;;;;;;7.00;99.90;;;;;;5134362;27;19930;-70
2022/04/17 01:48:49;;;;;;;;;;;6.00;99.90;;;;;;5116771;27;20014;-68
2022/04/17 01:51:14;;;;;;;;;;;7.10;99.90;;;;;;5116919;27;19946;-70
2022/04/17 01:53:40;;;;;;;;;;;6.50;99.90;;;;;;5134814;27;20290;-68
2022/04/17 01:56:05;;;;;;;;;;;6.60;99.90;;;;;;5134943;27;20366;-69
2022/04/17 01:58:31;;;;;;;;;;;6.40;99.90;;;;;;5134875;27;20378;-69
2022/04/17 02:00:57;;;;;;;;;;;7.40;99.90;;;;;;5134705;27;20290;-69
2022/04/17 02:03:22;;;;;;;;;;;6.30;99.90;;;;;;5116317;27;19930;-69
2022/04/17 02:05:48;;;;;;;;;;;6.70;99.90;;;;;;5134818;27;20022;-69
2022/04/17 02:08:15;;;;;;;;;;;7.00;99.90;;;;;;5116744;28;20031;-70
2022/04/17 02:10:40;;;;;;;;;;;5.90;99.90;;;;;;5134734;28;19951;-68
2022/04/17 02:13:06;;;;;;;;;;;5.90;99.90;;;;;;5134536;28;20389;-70
2022/04/17 02:15:33;;;;;;;;;;;5.80;99.90;;;;;;5134590;28;19923;-70
2022/04/17 02:17:58;;;;;;;;;;;6.60;99.90;;;;;;5134420;28;19923;-69
2022/04/17 02:20:24;;;;;;;;;;;6.80;99.90;;;;;;5115529;28;19923;-69
2022/04/17 02:22:49;;;;;;;;;;;6.70;99.90;;;;;;5134706;28;19976;-69
2022/04/17 02:25:15;;;;;;;;;;;5.90;99.90;;;;;;5134490;28;20370;-68
2022/04/17 02:27:40;;;;;;;;;;;6.00;99.90;;;;;;5116490;28;19923;-70
2022/04/17 02:30:06;;;;;;;;;;;4.50;99.90;;;;;;5116335;28;19927;-68
2022/04/17 02:32:32;;;;;;;;;;;5.80;99.90;;;;;;5134666;28;19924;-69
2022/04/17 02:34:57;;;;;;;;;;;6.50;99.90;;;;;;5134025;28;19924;-68
2022/04/17 02:37:23;;;;;;;;;;;6.50;99.90;;;;;;5116186;28;19923;-70
2022/04/17 02:39:48;;;;;;;;;;;6.40;99.90;;;;;;5116467;28;19923;-67
2022/04/17 02:42:14;;;;;;;;;;;6.00;99.90;;;;;;5134309;28;20342;-68
2022/04/17 02:44:40;;;;;;;;;;;5.70;99.90;;;;;;5116302;28;19995;-70
2022/04/17 02:49:50;;;;;;;;;;;5.60;99.90;;;;;;5134020;28;20412;-68
2022/04/17 02:52:16;;;;;;;;;;;6.70;99.90;;;;;;5134258;28;19923;-69
2022/04/17 02:54:42;;;;;;;;;;;5.30;99.90;;;;;;5115940;28;20018;-68
2022/04/17 02:57:07;;;;;;;;;;;6.70;99.90;;;;;;5136414;27;19927;-70
2022/04/17 02:59:33;;;;;;;;;;;5.30;99.90;;;;;;5138095;27;19923;-68
2022/04/17 03:07:28;;;;;;;;;;;6.50;99.90;;;;;;5137989;27;19927;-67
2022/04/17 03:09:54;;;;;;;;;;;5.10;99.90;;;;;;5137863;27;19924;-69
2022/04/17 03:12:20;;;;;;;;;;;6.20;99.90;;;;;;5137765;27;19946;-67
2022/04/17 03:14:46;;;;;;;;;;;5.70;99.90;;;;;;5137539;27;19963;-69
2022/04/17 03:17:12;;;;;;;;;;;5.00;99.90;;;;;;5119536;27;20358;-67
2022/04/17 03:19:37;;;;;;;;;;;5.00;99.90;;;;;;5137689;27;19973;-68
2022/04/17 03:22:04;;;;;;;;;;;5.10;99.90;;;;;;5119521;27;19927;-69
2022/04/17 03:24:31;;;;;;;;;;;5.10;99.90;;;;;;5137666;27;20017;-69
2022/04/17 03:26:57;;;;;;;;;;;6.40;99.90;;;;;;5119458;27;19927;-70
2022/04/17 03:29:23;;;;;;;;;;;6.70;99.90;;;;;;5137380;27;19923;-67
2022/04/17 03:31:49;;;;;;;;;;;5.10;99.90;;;;;;5137283;27;19935;-68
2022/04/17 03:34:14;;;;;;;;;;;6.00;99.90;;;;;;5137400;27;20270;-68
2022/04/17 03:36:40;;;;;;;;;;;6.70;99.90;;;;;;5118991;27;19923;-68
2022/04/17 03:39:06;;;;;;;;;;;5.10;99.90;;;;;;5119322;27;19962;-69
2022/04/17 03:41:31;;;;;;;;;;;5.00;99.90;;;;;;5137343;27;19927;-68
2022/04/17 03:43:57;;;;;;;;;;;4.90;99.90;;;;;;5118907;27;19985;-70
2022/04/17 03:46:23;;;;;;;;;;;5.90;99.90;;;;;;5119016;27;19924;-70
2022/04/17 03:48:48;;;;;;;;;;;5.60;99.90;;;;;;5119123;27;19969;-70
2022/04/17 03:51:14;;;;;;;;;;;6.30;99.90;;;;;;5137252;27;19923;-70
2022/04/17 03:53:39;;;;;;;;;;;5.60;99.90;;;;;;5118920;27;20289;-70
2022/04/17 03:56:05;;;;;;;;;;;5.50;99.90;;;;;;5137063;27;20361;-70
2022/04/17 03:58:31;;;;;;;;;;;5.00;99.90;;;;;;5136916;27;19923;-69
2022/04/17 04:00:56;;;;;;;;;;;5.40;99.90;;;;;;5136799;27;20030;-68
2022/04/17 04:03:22;;;;;;;;;;;4.80;99.90;;;;;;5137020;27;19923;-68
2022/04/17 04:05:47;;;;;;;;;;;4.70;99.90;;;;;;5118807;27;19923;-68
2022/04/17 04:08:13;;;;;;;;;;;5.20;99.90;;;;;;5136305;27;20006;-70
2022/04/17 04:10:39;;;;;;;;;;;4.70;99.90;;;;;;5136742;27;19930;-69
2022/04/17 04:13:04;;;;;;;;;;;4.70;99.90;;;;;;5136565;27;20024;-68
2022/04/17 04:15:30;;;;;;;;;;;6.30;99.90;;;;;;5136606;27;19930;-67
2022/04/17 04:17:55;;;;;;;;;;;5.40;99.90;;;;;;5118685;27;19930;-68
2022/04/17 04:20:21;;;;;;;;;;;5.00;99.90;;;;;;5118593;27;19930;-71
2022/04/17 04:22:46;;;;;;;;;;;6.40;99.90;;;;;;5118189;27;19978;-68
2022/04/17 04:25:12;;;;;;;;;;;4.60;99.90;;;;;;5100954;27;19927;-69
2022/04/17 04:30:22;;;;;;;;;;;5.20;99.90;;;;;;5136185;27;19931;-71
2022/04/17 04:32:52;;;;;;;;;;;4.70;99.90;;;;;;5117841;27;19927;-68
2022/04/17 04:35:18;;;;;;;;;;;4.80;99.90;;;;;;5117603;27;19971;-69
2022/04/17 04:37:44;;;;;;;;;;;6.40;99.90;;;;;;5136225;27;19974;-69
2022/04/17 04:40:10;;;;;;;;;;;6.20;99.90;;;;;;5136155;27;19923;-68
2022/04/17 04:42:36;;;;;;;;;;;4.70;99.90;;;;;;5136003;27;19929;-70
2022/04/17 04:47:46;;;;;;;;;;;5.10;99.90;;;;;;5136063;27;19974;-70
2022/04/17 04:50:12;;;;;;;;;;;4.60;99.90;;;;;;5135958;27;20013;-68
2022/04/17 04:52:37;;;;;;;;;;;4.60;99.90;;;;;;5135925;27;19923;-67
2022/04/17 04:55:04;;;;;;;;;;;4.60;99.90;;;;;;5100531;27;19923;-68
2022/04/17 04:57:30;;;;;;;;;;;4.60;99.90;;;;;;5117691;27;19967;-70
2022/04/17 04:59:55;;;;;;;;;;;4.80;99.90;;;;;;5135743;27;20401;-69
2022/04/17 05:02:21;;;;;;;;;;;5.60;99.90;;;;;;5135838;27;19923;-70
2022/04/17 05:04:46;;;;;;;;;;;5.40;99.90;;;;;;5117682;27;20026;-67
2022/04/17 05:07:12;;;;;;;;;;;5.50;99.90;;;;;;5135593;27;19930;-69
2022/04/17 05:09:38;;;;;;;;;;;4.90;99.90;;;;;;5135531;27;19924;-67
2022/04/17 05:12:04;;;;;;;;;;;5.10;99.90;;;;;;5117235;27;19946;-68
2022/04/17 05:14:31;;;;;;;;;;;4.50;99.90;;;;;;5135266;27;19923;-69
2022/04/17 05:16:56;;;;;;;;;;;4.50;99.90;;;;;;5135571;27;19930;-67
2022/04/17 05:19:27;;;;;;;;;;;3.60;99.90;;;;;;5135026;27;19924;-71
2022/04/17 05:21:57;;;;;;;;;;;4.50;99.90;;;;;;5135436;27;19930;-70
2022/04/17 05:24:23;;;;;;;;;;;5.40;99.90;;;;;;5135356;27;20010;-67
2022/04/17 05:26:49;;;;;;;;;;;5.00;99.90;;;;;;5135238;27;20390;-68
2022/04/17 05:29:15;;;;;;;;;;;4.70;99.90;;;;;;5135054;27;19923;-69
2022/04/17 05:31:40;;;;;;;;;;;4.60;99.90;;;;;;5134993;27;19967;-70
2022/04/17 05:34:06;;;;;;;;;;;4.70;99.90;;;;;;5116675;27;19923;-70
2022/04/17 05:36:31;;;;;;;;;;;6.20;99.90;;;;;;5117153;27;19923;-68
2022/04/17 05:38:57;;;;;;;;;;;4.80;99.90;;;;;;5135117;27;19962;-69
2022/04/17 05:41:23;;;;;;;;;;;5.90;99.90;;;;;;5134977;27;19974;-69
2022/04/17 05:43:49;;;;;;;;;;;5.60;99.90;;;;;;5116577;27;19930;-69
2022/04/17 05:46:14;;;;;;;;;;;5.00;99.90;;;;;;5135052;27;19924;-70
2022/04/17 05:48:40;;;;;;;;;;;5.00;99.90;;;;;;5117006;27;20014;-66
2022/04/17 05:51:06;;;;;;;;;;;5.00;99.90;;;;;;5134770;27;19959;-68
2022/04/17 05:53:32;;;;;;;;;;;5.10;99.90;;;;;;5116457;27;19931;-67
2022/04/17 05:55:58;;;;;;;;;;;5.10;99.90;;;;;;5134789;27;19931;-68
2022/04/17 05:58:23;;;;;;;;;;;6.10;99.90;;;;;;5116694;27;20351;-68
2022/04/17 06:00:49;;;;;;;;;;;5.50;99.90;;;;;;5134916;27;20027;-67
2022/04/17 06:03:15;;;;;;;;;;;5.30;99.90;;;;;;5134948;27;19923;-68
2022/04/17 06:05:41;;;;;;;;;;;6.80;99.90;;;;;;5116695;27;19931;-69
2022/04/17 06:08:07;;;;;;;;;;;5.50;99.90;;;;;;5134680;27;19927;-69
2022/04/17 06:10:33;;;;;;;;;;;5.60;99.90;;;;;;5116680;28;20366;-68
2022/04/17 06:12:58;;;;;;;;;;;6.20;99.90;;;;;;5134604;28;19930;-68
2022/04/17 06:15:24;;;;;;;;;;;6.40;99.90;;;;;;5116113;28;20010;-68
2022/04/17 06:17:49;;;;;;;;;;;6.60;99.90;;;;;;5116679;28;19976;-69
2022/04/17 06:20:15;;;;;;;;;;;6.70;99.90;;;;;;5116325;28;19924;-68
2022/04/17 06:22:41;;;;;;;;;;;5.90;99.90;;;;;;5134532;28;19948;-69
2022/04/17 06:25:08;;;;;;;;;;;6.00;99.90;;;;;;5134583;28;19996;-68
2022/04/17 06:27:36;;;;;;;;;;;6.00;99.90;;;;;;5133352;28;19976;-69
2022/04/17 06:30:06;;;;;;;;;;;6.10;99.90;;;;;;5134246;28;19923;-69
2022/04/17 06:32:32;;;;;;;;;;;6.20;99.90;;;;;;5137222;27;19948;-68
2022/04/17 06:34:58;;;;;;;;;;;6.30;99.90;;;;;;5138311;27;19975;-69
2022/04/17 06:37:24;;;;;;;;;;;6.40;99.90;;;;;;5119198;27;19923;-71
2022/04/17 06:39:50;;;;;;;;;;;6.40;99.90;;;;;;5120309;27;19930;-69
2022/04/17 06:42:15;;;;;;;;;;;6.50;99.90;;;;;;5120100;27;19930;-69
2022/04/17 06:44:41;;;;;;;;;;;6.80;99.90;;;;;;5120147;27;19981;-67
2022/04/17 06:47:06;;;;;;;;;;;6.70;99.90;;;;;;5138237;27;19980;-69
2022/04/17 06:49:32;;;;;;;;;;;6.80;99.90;;;;;;5120194;27;19929;-69
2022/04/17 06:51:58;;;;;;;;;;;7.50;99.90;;;;;;5138020;27;20014;-70
2022/04/17 06:54:23;;;;;;;;;;;7.20;99.90;;;;;;5119199;27;20393;-68
2022/04/17 06:56:49;;;;;;;;;;;7.50;99.90;;;;;;5119257;27;19923;-67
2022/04/17 06:59:15;;;;;;;;;;;7.10;99.90;;;;;;5138055;27;20027;-69
2022/04/17 07:01:40;;;;;;;;;;;7.40;99.90;;;;;;5137872;27;19924;-70
2022/04/17 07:04:12;;;;;;;;;;;7.50;99.90;;;;;;5138020;27;19962;-69
2022/04/17 07:06:37;;;;;;;;;;;7.40;99.90;;;;;;5137970;27;19985;-68
2022/04/17 07:09:03;;;;;;;;;;;8.30;99.90;;;;;;5119628;27;19985;-69
2022/04/17 07:11:29;;;;;;;;;;;7.60;99.90;;;;;;5119655;27;20013;-69
2022/04/17 07:13:54;;;;;;;;;;;7.70;99.90;;;;;;5137719;27;20017;-67
2022/04/17 07:16:20;;;;;;;;;;;8.60;99.90;;;;;;5119545;27;20016;-68
2022/04/17 07:18:46;;;;;;;;;;;8.00;99.90;;;;;;5137821;27;19923;-67
2022/04/17 07:21:11;;;;;;;;;;;8.10;99.90;;;;;;5137651;27;20366;-67
2022/04/17 07:23:37;;;;;;;;;;;8.20;99.90;;;;;;5119646;27;20017;-68
2022/04/17 07:26:03;;;;;;;;;;;8.90;99.90;;;;;;5137534;27;19924;-70
2022/04/17 07:28:28;;;;;;;;;;;9.00;99.90;;;;;;5137369;27;19949;-68
2022/04/17 07:30:54;;;;;;;;;;;9.30;99.90;;;;;;5137040;27;19931;-69
2022/04/17 07:33:19;;;;;;;;;;;9.60;99.90;;;;;;5137467;27;19923;-70
2022/04/17 07:35:45;;;;;;;;;;;8.70;99.90;;;;;;5119310;27;19969;-69
2022/04/17 07:38:10;;;;;;;;;;;8.80;99.90;;;;;;5137410;27;20026;-69
2022/04/17 07:40:36;;;;;;;;;;;8.90;99.90;;;;;;5119335;27;19934;-68
2022/04/17 07:43:03;;;;;;;;;;;9.00;99.90;;;;;;5118212;27;19938;-70
2022/04/17 07:45:31;;;;;;;;;;;9.10;99.90;;;;;;5119149;27;20302;-68
2022/04/17 07:47:56;;;;;;;;;;;9.20;99.90;;;;;;5137021;27;19967;-70
2022/04/17 07:50:26;;;;;;;;;;;8.10;99.90;;;;;;5137213;27;19924;-69
2022/04/17 07:52:53;;;;;;;;;;;9.40;99.90;;;;;;5137114;27;19930;-68
2022/04/17 07:55:19;;;;;;;;;;;9.60;99.90;;;;;;5118478;27;19930;-69
2022/04/17 08:00:28;;;;;;;;;;;10.20;99.90;;;;;;5117769;27;20394;-71
2022/04/17 08:03:06;;;;;;;;;;;9.70;99.90;;;;;;5118856;27;20021;-69
2022/04/17 08:05:31;;;;;;;;;;;9.70;99.90;;;;;;5118428;27;19978;-69
2022/04/17 08:07:57;;;;;;;;;;;10.00;99.90;;;;;;5118337;27;20027;-69
2022/04/17 08:10:22;;;;;;;;;;;10.10;99.90;;;;;;5117858;27;19924;-70
2022/04/17 08:12:50;;;;;;;;;;;10.10;99.90;;;;;;5118216;27;19923;-71
2022/04/17 08:15:15;;;;;;;;;;;10.60;99.90;;;;;;5117767;27;20367;-68
2022/04/17 08:17:41;;;;;;;;;;;10.30;99.10;;;;;;5117180;27;19930;-68
2022/04/17 08:20:07;;;;;;;;;;;10.30;99.90;;;;;;5100127;27;19972;-69
2022/04/17 08:22:32;;;;;;;;;;;10.50;99.90;;;;;;5136248;27;20321;-70
2022/04/17 08:24:58;;;;;;;;;;;10.80;99.90;;;;;;5118263;27;19924;-70
2022/04/17 08:27:23;;;;;;;;;;;10.80;99.90;;;;;;5136347;27;19924;-69
2022/04/17 08:29:49;;;;;;;;;;;10.80;99.90;;;;;;5117962;27;19924;-70
2022/04/17 08:32:14;;;;;;;;;;;11.00;99.90;;;;;;5135866;27;19961;-70
2022/04/17 08:34:40;;;;;;;;;;;11.50;99.90;;;;;;5136192;27;19972;-71
2022/04/17 08:37:06;;;;;;;;;;;11.00;99.90;;;;;;5136244;27;19947;-70
2022/04/17 08:39:31;;;;;;;;;;;11.50;99.90;;;;;;5118079;27;20374;-67
2022/04/17 08:41:59;;;;;;;;;;;11.30;95.50;;;;;;5136035;27;19937;-70
2022/04/17 08:44:25;;;;;;;;;;;11.40;99.90;;;;;;5135979;27;20014;-69
2022/04/17 08:46:50;;;;;;;;;;;11.50;96.10;;;;;;5135920;27;19966;-69
2022/04/17 08:49:17;;;;;;;;;;;11.50;94.40;;;;;;5134670;27;20297;-69
2022/04/17 08:51:48;;;;;;;;;;;11.60;85.00;;;;;;5117932;27;19923;-69
2022/04/17 08:54:17;;;;;;;;;;;11.70;90.40;;;;;;5135807;27;20298;-71
2022/04/17 08:56:42;;;;;;;;;;;11.80;96.40;;;;;;5135997;27;19923;-68
2022/04/17 08:59:08;;;;;;;;;;;11.90;94.90;;;;;;5117607;27;19924;-70
2022/04/17 09:01:37;;;;;;;;;;;13.10;94.50;;;;;;5117462;27;20390;-70
2022/04/17 09:04:05;;;;;;;;;;;11.00;93.50;;;;;;5135806;27;20370;-71
2022/04/17 09:06:31;;;;;;;;;;;12.10;92.30;;;;;;5117057;27;19930;-71
2022/04/17 09:09:01;;;;;;;;;;;12.20;80.00;;;;;;5117568;27;19927;-68
2022/04/17 09:11:30;;;;;;;;;;;12.20;85.00;;;;;;5135467;27;19927;-69
2022/04/17 09:13:57;;;;;;;;;;;12.30;82.80;;;;;;5117102;27;19924;-72
2022/04/17 09:16:27;;;;;;;;;;;12.40;80.00;;;;;;5135618;27;19923;-69
2022/04/17 09:18:52;;;;;;;;;;;12.50;75.40;;;;;;5117363;27;19924;-68
2022/04/17 09:21:28;;;;;;;;;;;12.90;75.50;;;;;;5117094;27;19923;-70
2022/04/17 09:23:54;;;;;;;;;;;12.60;76.20;;;;;;5117280;27;20354;-70
2022/04/17 09:26:23;;;;;;;;;;;12.70;73.00;;;;;;5135101;27;19924;-69
2022/04/17 09:28:49;;;;;;;;;;;12.80;67.70;;;;;;5117445;27;19927;-69
2022/04/17 09:31:14;;;;;;;;;;;13.00;67.00;;;;;;5135361;27;20267;-71
2022/04/17 09:33:41;;;;;;;;;;;13.10;68.40;;;;;;5116329;27;19929;-70
2022/04/17 09:36:08;;;;;;;;;;;14.20;68.90;;;;;;5116754;27;19930;-68
2022/04/17 09:38:34;;;;;;;;;;;13.30;70.70;;;;;;5117002;27;19931;-70
2022/04/17 09:41:10;;;;;;;;;;;13.40;70.90;;;;;;5134867;27;19923;-71
2022/04/17 09:43:35;;;;;;;;;;;13.50;66.60;;;;;;5135111;27;20286;-70
2022/04/17 09:46:04;;;;;;;;;;;14.60;66.80;;;;;;5116816;27;19930;-70
2022/04/17 09:48:31;;;;;;;;;;;13.70;69.10;;;;;;5116918;27;19924;-70
2022/04/17 09:50:57;;;;;;;;;;;13.70;61.30;;;;;;5134748;27;19985;-69
2022/04/17 09:53:33;;;;;;;;;;;13.90;62.30;;;;;;5134755;27;20335;-69
2022/04/17 09:56:10;;;;;;;;;;;14.00;64.80;;;;;;5116673;27;19924;-69
2022/04/17 09:58:45;;;;;;;;;;;14.10;58.20;;;;;;5116618;28;19923;-71
2022/04/17 10:01:12;;;;;;;;;;;14.10;59.20;;;;;;5134856;27;19930;-69
2022/04/17 10:03:39;;;;;;;;;;;14.20;54.60;;;;;;5134664;27;20365;-70
2022/04/17 10:06:05;;;;;;;;;;;14.30;57.70;;;;;;5134149;27;19924;-71
2022/04/17 10:08:32;;;;;;;;;;;14.40;60.30;;;;;;5116166;27;19923;-71
2022/04/17 10:10:57;;;;;;;;;;;14.80;53.70;;;;;;5099689;28;20382;-69
2022/04/17 10:13:23;;;;;;;;;;;14.60;56.60;;;;;;5134425;28;19931;-72
2022/04/17 10:15:49;;;;;;;;;;;14.70;54.10;;;;;;5116610;28;20018;-69
2022/04/17 10:18:17;;;;;;;;;;;14.70;55.70;;;;;;5134591;28;20008;-71
2022/04/17 10:20:44;;;;;;;;;;;13.90;55.00;;;;;;5134248;28;20289;-69
2022/04/17 10:23:11;;;;;;;;;;;15.00;54.80;;;;;;5116129;28;20306;-70
2022/04/17 10:25:39;;;;;;;;;;;15.00;57.20;;;;;;5134612;28;19923;-70
2022/04/17 10:28:06;;;;;;;;;;;15.10;58.20;;;;;;5134619;28;19945;-71
2022/04/17 10:30:40;;;;;;;;;;;15.20;56.30;;;;;;5134562;28;19976;-69
2022/04/17 10:33:28;;;;;;;;;;;15.30;55.50;;;;;;5115947;28;19986;-70
2022/04/17 10:35:53;;;;;;;;;;;15.20;52.90;;;;;;5139679;27;19930;-69
2022/04/17 10:38:26;;;;;;;;;;;15.30;52.80;;;;;;5141275;27;19923;-72
2022/04/17 10:40:59;;;;;;;;;;;15.30;54.40;;;;;;5141628;27;19923;-69
2022/04/17 10:43:33;;;;;;;;;;;15.40;51.70;;;;;;5123691;27;19938;-69
2022/04/17 10:46:08;;;;;;;;;;;15.40;53.10;;;;;;5139717;27;19923;-72
2022/04/17 10:48:44;;;;;;;;;;;15.60;54.00;;;;;;5124849;27;19930;-67
2022/04/17 10:51:13;;;;;;;;;;;15.60;51.00;;;;;;5143847;27;20437;-69
2022/04/17 10:53:48;;;;;;;;;;;15.70;51.80;;;;;;5138481;27;20282;-71
2022/04/17 10:56:15;;;;;;;;;;;15.70;47.90;;;;;;5120763;27;20301;-69
2022/04/17 10:58:49;;;;;;;;;;;15.80;50.80;;;;;;5119608;27;20007;-72
2022/04/17 11:01:15;;;;;;;;;;;15.80;48.50;;;;;;5141459;27;20003;-70
2022/04/17 11:03:49;;;;;;;;;;;15.80;48.40;;;;;;5139021;27;19924;-71
2022/04/17 11:06:31;;;;;;;;;;;15.90;51.60;;;;;;5125753;27;19931;-71
2022/04/17 11:09:12;;;;;;;;;;;16.00;52.30;;;;;;5142738;27;19930;-69
2022/04/17 11:11:39;;;;;;;;;;;16.10;51.20;;;;;;5142768;27;20385;-70
2022/04/17 11:14:13;;;;;;;;;;;16.20;50.00;;;;;;5142397;27;19940;-69
2022/04/17 11:16:58;;;;;;;;;;;16.20;53.10;;;;;;5121761;27;19923;-71
2022/04/17 11:19:28;;;;;;;;;;;16.30;49.10;;;;;;5118680;27;19942;-70
2022/04/17 11:21:56;;;;;;;;;;;16.30;46.50;;;;;;5118136;27;19968;-70
2022/04/17 11:24:22;;;;;;;;;;;16.30;47.90;;;;;;5144855;27;19970;-70
2022/04/17 11:26:50;;;;;;;;;;;16.30;47.90;;;;;;5145573;27;19989;-70
2022/04/17 11:29:16;;;;;;;;;;;16.40;46.00;;;;;;5124514;27;20018;-71
2022/04/17 11:31:42;;;;;;;;;;;16.40;46.10;;;;;;5147162;27;20021;-69
2022/04/17 11:34:08;;;;;;;;;;;16.40;49.40;;;;;;5143077;27;19966;-69
2022/04/17 11:36:36;;;;;;;;;;;16.50;47.60;;;;;;5143184;27;20674;-70
2022/04/17 11:39:03;;;;;;;;;;;16.50;49.40;;;;;;5143872;27;19923;-70
2022/04/17 11:41:32;;;;;;;;;;;16.50;45.10;;;;;;5147091;27;20331;-71
2022/04/17 11:43:59;;;;;;;;;;;16.50;47.20;;;;;;5142173;27;19931;-72
2022/04/17 11:46:25;;;;;;;;;;;16.50;47.20;;;;;;5147043;27;20326;-70
2022/04/17 11:48:53;;;;;;;;;;;16.50;50.50;;;;;;5142410;27;19951;-70
2022/04/17 11:51:20;;;;;;;;;;;16.50;46.10;;;;;;5142638;27;19931;-70
2022/04/17 11:53:45;;;;;;;;;;;16.50;45.20;;;;;;5128399;27;19927;-71
2022/04/17 11:56:11;;;;;;;;;;;16.90;49.80;;;;;;5145249;27;19937;-69
2022/04/17 11:58:36;;;;;;;;;;;15.70;48.70;;;;;;5144466;27;19935;-68
2022/04/17 12:01:04;;;;;;;;;;;16.70;49.10;;;;;;5144283;27;19923;-71
2022/04/17 12:03:34;;;;;;;;;;;16.70;50.00;;;;;;5141228;27;19981;-71
2022/04/17 12:06:02;;;;;;;;;;;16.80;45.40;;;;;;5141451;27;19962;-72
2022/04/17 12:08:34;;;;;;;;;;;16.80;48.20;;;;;;5142388;27;19944;-69
2022/04/17 12:11:01;;;;;;;;;;;16.80;45.70;;;;;;5110111;27;20495;-70
2022/04/17 12:13:28;;;;;;;;;;;16.80;46.00;;;;;;5144450;27;19936;-71
2022/04/17 12:16:01;;;;;;;;;;;16.80;46.40;;;;;;5127775;27;20033;-72
2022/04/17 12:18:29;;;;;;;;;;;16.80;46.70;;;;;;5122741;27;19986;-69
2022/04/17 12:20:57;;;;;;;;;;;16.80;46.00;;;;;;5148208;27;20263;-70
2022/04/17 12:23:24;;;;;;;;;;;16.80;47.40;;;;;;5146932;27;19931;-72
2022/04/17 12:25:50;;;;;;;;;;;16.80;47.30;;;;;;5144649;27;19932;-70
2022/04/17 12:28:15;;;;;;;;;;;16.90;47.80;;;;;;5144328;27;19966;-71
2022/04/17 12:30:42;;;;;;;;;;;17.00;47.10;;;;;;5128509;27;20043;-71
2022/04/17 12:33:23;;;;;;;;;;;16.90;46.30;;;;;;5136484;27;19931;-71
2022/04/17 12:36:02;;;;;;;;;;;17.00;47.90;;;;;;5135776;27;19931;-70
2022/04/17 12:38:28;;;;;;;;;;;17.00;47.00;;;;;;5117477;27;19924;-69
2022/04/17 12:40:54;;;;;;;;;;;17.00;46.50;;;;;;5135947;27;19923;-69
2022/04/17 12:43:20;;;;;;;;;;;17.00;47.00;;;;;;5135919;27;19930;-71
2022/04/17 12:45:56;;;;;;;;;;;17.00;49.30;;;;;;5117749;27;20004;-72
2022/04/17 12:48:26;;;;;;;;;;;16.90;44.80;;;;;;5135670;27;19934;-71
2022/04/17 12:50:55;;;;;;;;;;;17.00;47.00;;;;;;5117596;27;19923;-69
2022/04/17 12:53:22;;;;;;;;;;;17.00;45.60;;;;;;5135748;27;19923;-70
2022/04/17 12:55:51;;;;;;;;;;;16.90;47.00;;;;;;5135696;27;19942;-71
2022/04/17 12:58:16;;;;;;;;;;;16.90;45.40;;;;;;5135616;27;19927;-71
2022/04/17 13:00:42;;;;;;;;;;;16.90;45.20;;;;;;5135473;27;19930;-70
2022/04/17 13:03:09;;;;;;;;;;;17.00;45.30;;;;;;5135493;27;20382;-72
2022/04/17 13:05:35;;;;;;;;;;;16.90;47.50;;;;;;5117428;27;19929;-70
2022/04/17 13:08:05;;;;;;;;;;;16.90;46.00;;;;;;5135388;27;19924;-70
2022/04/17 13:10:31;;;;;;;;;;;16.90;47.40;;;;;;5117151;27;19924;-72
2022/04/17 13:12:56;;;;;;;;;;;17.00;47.90;;;;;;5135273;27;20018;-72
2022/04/17 13:15:29;;;;;;;;;;;17.00;47.80;;;;;;5116732;27;20279;-72
2022/04/17 13:17:54;;;;;;;;;;;17.00;47.90;;;;;;5135401;27;19999;-71
2022/04/17 13:20:38;;;;;;;;;;;16.90;47.20;;;;;;5117115;27;20374;-72
2022/04/17 13:23:07;;;;;;;;;;;17.00;49.20;;;;;;5134964;27;19923;-70
2022/04/17 13:25:33;;;;;;;;;;;17.00;47.70;;;;;;5116887;27;19923;-69
2022/04/17 13:27:59;;;;;;;;;;;17.00;47.50;;;;;;5116519;27;20402;-69
2022/04/17 13:30:24;;;;;;;;;;;17.00;48.70;;;;;;5117191;27;19923;-71
2022/04/17 13:32:50;;;;;;;;;;;17.10;47.50;;;;;;5099704;27;20370;-72
2022/04/17 13:35:16;;;;;;;;;;;17.10;47.60;;;;;;5135021;27;19931;-71
2022/04/17 13:40:26;;;;;;;;;;;17.10;47.60;;;;;;5134499;27;20390;-71
2022/04/17 13:42:51;;;;;;;;;;;17.10;45.10;;;;;;5134427;27;19924;-71
2022/04/17 13:45:17;;;;;;;;;;;17.10;46.30;;;;;;5117008;27;19927;-70
2022/04/17 13:47:42;;;;;;;;;;;17.10;45.60;;;;;;5116663;27;19923;-71
2022/04/17 13:50:09;;;;;;;;;;;17.20;47.30;;;;;;5134816;27;20257;-71
2022/04/17 13:52:36;;;;;;;;;;;17.20;44.00;;;;;;5134291;27;19923;-70
2022/04/17 13:55:02;;;;;;;;;;;17.30;46.20;;;;;;5134741;27;19923;-71
2022/04/17 13:57:28;;;;;;;;;;;17.30;44.70;;;;;;5134660;27;19927;-71
2022/04/17 13:59:53;;;;;;;;;;;17.30;44.30;;;;;;5134910;27;19965;-71
2022/04/17 14:02:19;;;;;;;;;;;17.30;46.30;;;;;;5134792;27;20379;-72
2022/04/17 14:04:44;;;;;;;;;;;17.40;47.20;;;;;;5134712;27;19931;-71
2022/04/17 14:07:10;;;;;;;;;;;17.40;46.40;;;;;;5134632;27;19930;-70
2022/04/17 14:09:39;;;;;;;;;;;17.50;44.70;;;;;;5134754;27;19930;-71
2022/04/17 14:12:09;;;;;;;;;;;17.50;44.40;;;;;;5134334;27;19975;-71
2022/04/17 14:14:38;;;;;;;;;;;17.50;40.80;;;;;;5116379;28;19924;-71
2022/04/17 14:17:04;;;;;;;;;;;17.60;42.70;;;;;;5134723;28;19924;-71
2022/04/17 14:19:29;;;;;;;;;;;17.60;43.20;;;;;;5134728;28;19927;-70
2022/04/17 14:21:55;;;;;;;;;;;17.70;42.00;;;;;;5116337;28;20267;-71
2022/04/17 14:24:20;;;;;;;;;;;17.80;44.10;;;;;;5116526;28;19962;-70
2022/04/17 14:26:46;;;;;;;;;;;17.90;42.30;;;;;;5134431;28;19924;-70
2022/04/17 14:29:11;;;;;;;;;;;18.00;41.70;;;;;;5116602;28;19927;-72
2022/04/17 14:31:37;;;;;;;;;;;18.10;43.60;;;;;;5134555;28;19931;-70
2022/04/17 14:34:02;;;;;;;;;;;18.20;41.20;;;;;;5116150;28;20298;-72
2022/04/17 14:36:29;;;;;;;;;;;18.20;42.50;;;;;;5134391;28;19923;-70
2022/04/17 14:38:55;;;;;;;;;;;18.30;42.20;;;;;;5134467;28;20018;-72
2022/04/17 14:41:21;;;;;;;;;;;18.40;40.50;;;;;;5134295;28;19970;-71
2022/04/17 14:43:46;;;;;;;;;;;18.50;43.30;;;;;;5134588;28;19923;-70